Time;durP1;ratioP1;P1;durP2;ratioP2;P2;SDS_P1;SDS_P2;PMS_P1;PMS_P2;Temp;Humidity;BMP_temperature;BMP_pressure;BME280_temperature;BME280_humidity;BME280_pressure;Samples;Min_cycle;Max_cycle;Signal;HPM_P1;HPM_P2
2022/05/10 00:02:13;;;;;;;12.60;8.02;;;;;;;18.72;54.25;100613.13;5033294;28;20037;-87
2022/05/10 00:04:39;;;;;;;13.07;8.65;;;;;;;18.48;54.41;100619.03;5033225;28;20099;-87
2022/05/10 00:07:05;;;;;;;14.20;9.02;;;;;;;18.72;54.03;100624.63;5033110;28;20021;-88
2022/05/10 00:09:30;;;;;;;14.10;8.43;;;;;;;18.92;53.50;100616.50;5033133;28;20032;-88
2022/05/10 00:11:57;;;;;;;12.55;8.52;;;;;;;18.91;53.88;100620.97;5032585;28;20025;-88
2022/05/10 00:14:23;;;;;;;12.80;8.35;;;;;;;18.67;54.46;100626.88;5033141;28;20476;-88
2022/05/10 00:16:52;;;;;;;14.15;8.85;;;;;;;18.15;56.42;100610.72;5033117;28;20025;-88
2022/05/10 00:19:19;;;;;;;16.45;10.13;;;;;;;18.03;57.13;100602.94;5033040;28;20041;-88
2022/05/10 00:21:47;;;;;;;19.88;10.98;;;;;;;17.88;57.36;100600.94;5032974;28;20037;-88
2022/05/10 00:24:13;;;;;;;17.55;11.15;;;;;;;17.84;57.84;100614.50;5032824;28;20028;-88
2022/05/10 00:26:38;;;;;;;15.02;11.10;;;;;;;17.64;58.87;100628.81;5032558;28;20030;-87
2022/05/10 00:29:03;;;;;;;16.63;10.98;;;;;;;17.76;58.75;100624.16;5032781;28;20029;-87
2022/05/10 00:31:30;;;;;;;17.02;11.20;;;;;;;17.97;57.91;100618.63;5030946;28;20029;-87
2022/05/10 00:33:57;;;;;;;16.42;11.30;;;;;;;17.78;58.87;100617.69;5032746;28;20021;-88
2022/05/10 00:36:23;;;;;;;20.17;12.32;;;;;;;17.73;59.66;100617.31;5032595;28;20067;-87
2022/05/10 00:38:50;;;;;;;17.17;11.88;;;;;;;17.41;60.91;100593.78;5032839;28;20056;-88
2022/05/10 00:41:30;;;;;;;17.27;11.43;;;;;;;17.97;59.66;100589.41;5032276;28;20476;-87
2022/05/10 00:44:07;;;;;;;18.10;11.95;;;;;;;17.70;60.29;100585.72;5032514;28;20040;-87
2022/05/10 00:46:37;;;;;;;18.73;12.52;;;;;;;17.76;60.40;100584.31;5032458;28;20017;-87
2022/05/10 00:49:24;;;;;;;17.80;13.35;;;;;;;17.45;61.17;100581.91;5032392;28;20045;-88
2022/05/10 00:51:58;;;;;;;19.85;13.38;;;;;;;17.20;62.27;100583.34;5032649;28;20025;-87
2022/05/10 00:54:38;;;;;;;20.13;13.50;;;;;;;17.49;61.75;100574.50;5032524;28;20032;-88
2022/05/10 00:57:22;;;;;;;23.17;14.23;;;;;;;17.61;61.38;100565.34;5032157;28;20029;-88
2022/05/10 01:00:11;;;;;;;22.50;14.68;;;;;;;17.71;61.12;100574.13;5032176;28;20032;-87
2022/05/10 01:02:45;;;;;;;20.92;14.10;;;;;;;17.48;61.70;100565.69;5032334;28;20021;-88
2022/05/10 01:05:30;;;;;;;26.90;15.73;;;;;;;17.34;62.24;100564.34;5032487;28;20025;-87
2022/05/10 01:08:05;;;;;;;23.17;14.70;;;;;;;17.16;63.36;100566.03;5032423;28;20067;-88
2022/05/10 01:10:43;;;;;;;22.98;15.75;;;;;;;17.16;63.09;100560.75;5032100;28;20361;-88
2022/05/10 01:13:32;;;;;;;19.88;14.00;;;;;;;17.08;63.91;100557.97;5031213;28;20028;-88
2022/05/10 01:16:07;;;;;;;24.98;16.00;;;;;;;17.43;63.15;100557.31;5030933;28;20033;-88
2022/05/10 01:18:34;;;;;;;23.25;15.30;;;;;;;17.55;62.36;100568.59;5031852;28;20030;-88
2022/05/10 01:21:16;;;;;;;24.40;16.27;;;;;;;17.57;62.36;100554.19;5032034;28;20036;-88
2022/05/10 01:24:07;;;;;;;23.58;16.75;;;;;;;17.38;63.33;100547.16;5032347;28;20041;-88
2022/05/10 01:26:51;;;;;;;21.95;15.05;;;;;;;17.61;62.96;100544.13;5032015;28;20065;-88
2022/05/10 01:29:27;;;;;;;22.52;15.48;;;;;;;17.16;63.99;100524.47;5031695;28;20025;-88
2022/05/10 01:34:42;;;;;;;26.45;15.75;;;;;;;17.07;64.67;100516.53;5032297;28;20040;-88
2022/05/10 01:37:13;;;;;;;23.63;16.00;;;;;;;16.78;66.08;100520.03;5032061;28;20029;-88
2022/05/10 01:39:58;;;;;;;26.30;16.85;;;;;;;17.24;64.72;100526.41;5030914;28;20128;-88
2022/05/10 01:42:32;;;;;;;23.40;15.45;;;;;;;17.02;65.58;100520.44;5031294;28;20034;-88
2022/05/10 01:45:04;;;;;;;25.35;17.02;;;;;;;17.08;65.36;100508.44;5030680;28;20435;-88
2022/05/10 01:47:35;;;;;;;23.35;15.25;;;;;;;16.97;65.58;100509.41;5032474;28;20014;-87
2022/05/10 01:50:18;;;;;;;22.60;15.77;;;;;;;17.12;65.04;100501.84;5030570;28;20040;-87
2022/05/10 01:52:55;;;;;;;21.08;14.82;;;;;;;17.09;65.16;100501.28;5030386;28;20111;-88
2022/05/10 01:55:23;;;;;;;27.48;15.55;;;;;;;17.12;64.93;100503.66;5031670;28;20026;-87
2022/05/10 01:57:49;;;;;;;22.83;15.02;;;;;;;17.25;64.59;100493.56;5031988;28;20484;-88
2022/05/10 02:00:20;;;;;;;27.10;14.18;;;;;;;17.11;64.74;100489.56;5031426;28;20021;-88
2022/05/10 02:02:57;;;;;;;19.73;14.13;;;;;;;16.71;66.86;100492.44;5031754;28;20056;-88
2022/05/10 02:05:43;;;;;;;21.08;13.75;;;;;;;16.81;65.95;100487.94;5032223;28;20345;-89
2022/05/10 02:08:18;;;;;;;20.33;12.85;;;;;;;17.09;65.29;100485.38;5032145;28;20026;-89
2022/05/10 02:10:49;;;;;;;22.88;12.38;;;;;;;16.80;65.51;100470.34;5028915;28;20029;-88
2022/05/10 02:13:25;;;;;;;16.90;11.70;;;;;;;17.10;64.74;100484.38;5031291;28;20039;-88
2022/05/10 02:15:59;;;;;;;22.42;12.60;;;;;;;17.18;64.32;100481.84;5031650;28;20030;-89
2022/05/10 02:18:32;;;;;;;17.33;12.02;;;;;;;17.22;64.23;100486.72;5031703;28;20030;-89
2022/05/10 02:21:02;;;;;;;17.13;12.20;;;;;;;17.41;63.64;100484.97;5030424;28;20029;-89
2022/05/10 02:23:43;;;;;;;16.35;11.18;;;;;;;17.38;63.96;100485.28;5033068;28;20030;-89
2022/05/10 02:26:12;;;;;;;17.48;11.40;;;;;;;17.28;64.40;100487.97;5035025;28;20026;-88
2022/05/10 02:28:47;;;;;;;16.95;11.40;;;;;;;17.22;64.43;100486.72;5035041;28;20030;-88
2022/05/10 02:31:19;;;;;;;14.63;10.50;;;;;;;17.51;63.39;100469.00;5034913;28;20033;-89
2022/05/10 02:33:48;;;;;;;15.57;10.35;;;;;;;17.58;62.94;100473.56;5035193;28;20036;-88
2022/05/10 02:36:14;;;;;;;18.48;10.57;;;;;;;17.05;64.63;100482.19;5035084;28;20491;-89
2022/05/10 02:38:40;;;;;;;14.60;10.05;;;;;;;17.36;63.87;100466.84;5033739;28;20079;-88
2022/05/10 02:41:21;;;;;;;15.23;10.45;;;;;;;17.38;63.64;100470.19;5034742;28;20541;-87
2022/05/10 02:43:53;;;;;;;13.90;10.07;;;;;;;17.23;64.40;100476.94;5034479;28;20030;-88
2022/05/10 02:46:18;;;;;;;;;;;;;;;17.31;64.19;100469.09;5034041;28;20391;-89
2022/05/10 02:48:47;;;;;;;14.82;10.02;;;;;;;17.34;64.09;100463.50;5034432;28;19921;-89
2022/05/10 02:51:12;;;;;;;16.50;9.85;;;;;;;17.52;63.32;100460.06;5034583;28;20036;-87
2022/05/10 02:53:38;;;;;;;15.63;9.20;;;;;;;17.49;63.41;100453.22;5033299;28;20030;-88
2022/05/10 02:56:12;;;;;;;16.05;9.25;;;;;;;17.49;63.77;100463.81;5033639;28;20025;-89
2022/05/10 02:58:56;;;;;;;12.00;9.02;;;;;;;17.70;63.25;100466.22;5034543;28;20048;-87
2022/05/10 03:01:31;;;;;;;11.57;8.68;;;;;;;17.81;62.95;100468.69;5033171;28;20121;-88
2022/05/10 03:03:56;;;;;;;11.85;9.52;;;;;;;17.91;62.46;100454.53;5033964;28;20025;-88
2022/05/10 03:06:24;;;;;;;15.50;9.35;;;;;;;17.98;62.46;100452.94;5033359;28;20026;-87
2022/05/10 03:08:50;;;;;;;11.88;9.32;;;;;;;17.91;62.43;100443.91;5034864;28;20037;-87
2022/05/10 03:11:17;;;;;;;13.75;8.82;;;;;;;18.01;62.04;100447.34;5034987;28;20033;-87
2022/05/10 03:13:43;;;;;;;14.05;8.52;;;;;;;18.19;61.93;100458.78;5035306;28;20112;-87
2022/05/10 03:16:09;;;;;;;14.32;8.60;;;;;;;17.93;62.09;100453.41;5035136;28;20029;-87
2022/05/10 03:18:35;;;;;;;12.07;8.55;;;;;;;18.17;61.62;100444.81;5033330;28;20440;-87
2022/05/10 03:21:00;;;;;;;15.45;7.97;;;;;;;17.88;62.70;100433.59;5034789;28;20032;-87
2022/05/10 03:23:27;;;;;;;11.25;7.45;;;;;;;17.77;63.14;100443.41;5033323;28;20392;-87
2022/05/10 03:25:54;;;;;;;11.48;6.82;;;;;;;18.12;62.08;100436.47;5033954;28;20021;-87
2022/05/10 03:28:20;;;;;;;15.23;7.85;;;;;;;17.90;62.57;100442.25;5034836;28;20071;-87
2022/05/10 03:30:45;;;;;;;16.05;7.38;;;;;;;17.58;63.83;100427.59;5033667;28;20124;-87
2022/05/10 03:33:10;;;;;;;11.93;6.53;;;;;;;18.04;62.26;100417.78;5036040;28;20025;-88
2022/05/10 03:35:36;;;;;;;9.05;6.20;;;;;;;17.94;62.27;100419.69;5034466;28;20033;-88
2022/05/10 03:38:01;;;;;;;12.27;5.65;;;;;;;18.20;61.83;100419.75;5036473;28;20036;-87
2022/05/10 03:40:27;;;;;;;9.98;6.05;;;;;;;18.09;61.76;100412.88;5033359;28;20026;-87
2022/05/10 03:42:53;;;;;;;8.65;5.13;;;;;;;17.93;62.31;100410.03;5034514;28;20492;-86
2022/05/10 03:45:20;;;;;;;9.40;5.55;;;;;;;17.93;62.22;100405.59;5034428;28;20439;-87
2022/05/10 03:47:47;;;;;;;10.32;5.05;;;;;;;18.04;61.91;100412.47;5034819;28;20048;-87
2022/05/10 03:50:14;;;;;;;8.05;5.03;;;;;;;18.07;61.93;100406.88;5034226;28;20033;-86
2022/05/10 03:52:41;;;;;;;7.10;4.95;;;;;;;17.60;63.46;100412.38;5033542;28;20391;-87
2022/05/10 03:55:09;;;;;;;11.43;4.82;;;;;;;17.93;62.68;100402.06;5033682;28;20379;-87
2022/05/10 03:57:35;;;;;;;8.38;4.55;;;;;;;18.20;61.50;100417.94;5031888;28;20458;-87
2022/05/10 04:00:01;;;;;;;11.38;5.10;;;;;;;18.15;61.85;100420.22;5033712;28;20096;-87
2022/05/10 04:02:26;;;;;;;14.65;4.68;;;;;;;18.00;62.01;100409.28;5033790;28;20034;-87
2022/05/10 04:04:51;;;;;;;8.43;3.90;;;;;;;18.15;61.89;100417.56;5033321;28;20029;-87
2022/05/10 04:07:17;;;;;;;7.97;4.47;;;;;;;18.12;62.02;100428.50;5033518;28;20415;-87
2022/05/10 04:09:43;;;;;;;9.05;4.78;;;;;;;17.95;62.23;100424.88;5033325;28;20079;-87
2022/05/10 04:12:09;;;;;;;8.05;4.20;;;;;;;17.76;63.39;100435.59;5032212;28;20071;-87
2022/05/10 04:14:34;;;;;;;10.43;4.10;;;;;;;17.83;62.74;100416.28;5032622;28;20052;-87
2022/05/10 04:16:59;;;;;;;8.57;4.28;;;;;;;17.80;62.80;100415.72;5033133;28;20025;-87
2022/05/10 04:19:25;;;;;;;7.72;4.07;;;;;;;18.19;62.00;100424.25;5032882;28;20502;-87
2022/05/10 04:21:50;;;;;;;8.20;3.97;;;;;;;18.23;61.82;100428.25;5032921;28;20025;-87
2022/05/10 04:24:16;;;;;;;10.05;4.50;;;;;;;17.68;63.34;100424.91;5033083;28;20028;-86
2022/05/10 04:26:42;;;;;;;9.57;3.90;;;;;;;17.61;64.04;100421.97;5033076;28;20434;-87
2022/05/10 04:29:07;;;;;;;9.65;3.97;;;;;;;17.77;63.62;100430.13;5033141;28;20021;-87
2022/05/10 04:31:33;;;;;;;6.43;3.70;;;;;;;17.99;63.07;100420.06;5031986;28;20033;-87
2022/05/10 04:33:58;;;;;;;7.65;3.83;;;;;;;17.58;64.31;100425.78;5032590;28;20075;-87
2022/05/10 04:36:25;;;;;;;8.20;3.90;;;;;;;17.76;63.96;100431.13;5031657;28;20047;-87
2022/05/10 04:38:51;;;;;;;13.15;3.92;;;;;;;17.91;63.75;100422.66;5032180;28;20084;-87
2022/05/10 04:41:27;;;;;;;8.93;3.53;;;;;;;17.77;64.29;100427.50;5031705;28;20391;-88
2022/05/10 04:43:58;;;;;;;5.90;3.03;;;;;;;17.83;63.82;100432.22;5033323;28;20018;-88
2022/05/10 04:46:24;;;;;;;6.45;3.90;;;;;;;17.80;63.83;100427.16;5032453;28;20030;-88
2022/05/10 04:48:49;;;;;;;8.52;3.75;;;;;;;17.51;65.30;100423.88;5032718;28;20038;-87
2022/05/10 04:51:15;;;;;;;10.60;2.78;;;;;;;18.03;63.40;100421.47;5031314;28;20025;-88
2022/05/10 04:53:41;;;;;;;5.70;3.30;;;;;;;18.45;62.32;100434.09;5032816;28;20021;-88
2022/05/10 04:56:06;;;;;;;11.02;4.40;;;;;;;18.63;61.51;100429.53;5032763;28;20036;-88
2022/05/10 04:58:33;;;;;;;10.13;3.50;;;;;;;18.49;61.96;100427.47;5032737;28;20108;-88
2022/05/10 05:01:03;;;;;;;8.32;3.08;;;;;;;18.49;61.92;100416.81;5031441;28;20120;-88
2022/05/10 05:03:28;;;;;;;7.15;3.05;;;;;;;18.58;61.82;100417.72;5030738;28;20060;-88
2022/05/10 05:05:53;;;;;;;9.88;3.75;;;;;;;18.34;62.57;100405.09;5032270;28;20049;-88
2022/05/10 05:08:19;;;;;;;10.77;3.75;;;;;;;18.45;62.43;100419.97;5032512;28;20025;-88
2022/05/10 05:10:44;;;;;;;7.90;3.65;;;;;;;18.36;62.86;100424.38;5032233;28;20087;-87
2022/05/10 05:13:09;;;;;;;8.70;4.00;;;;;;;18.36;63.19;100422.53;5030597;28;20079;-88
2022/05/10 05:15:35;;;;;;;8.98;3.75;;;;;;;18.80;61.47;100421.72;5032291;28;20217;-88
2022/05/10 05:18:03;;;;;;;13.15;4.20;;;;;;;18.65;62.65;100409.97;5032312;28;20480;-88
2022/05/10 05:20:30;;;;;;;8.45;3.83;;;;;;;18.83;62.20;100416.06;5032474;28;20486;-88
2022/05/10 05:22:56;;;;;;;10.90;3.88;;;;;;;18.71;62.01;100419.97;5032198;28;20399;-88
2022/05/10 05:25:22;;;;;;;6.93;3.35;;;;;;;18.65;62.35;100425.91;5030988;28;20083;-88
2022/05/10 05:27:48;;;;;;;7.43;3.50;;;;;;;18.94;61.33;100417.66;5031567;28;20029;-88
2022/05/10 05:30:13;;;;;;;5.40;3.33;;;;;;;18.66;62.41;100416.94;5031784;28;20384;-88
2022/05/10 05:32:40;;;;;;;10.27;3.63;;;;;;;18.63;62.10;100424.22;5030734;28;20053;-88
2022/05/10 05:35:06;;;;;;;9.48;3.78;;;;;;;18.71;62.11;100414.66;5031812;28;20041;-88
2022/05/10 05:37:34;;;;;;;8.32;3.22;;;;;;;18.71;61.99;100422.63;5031882;28;20030;-88
2022/05/10 05:40:13;;;;;;;9.18;2.97;;;;;;;18.66;61.99;100414.28;5032412;28;20025;-88
2022/05/10 05:42:39;;;;;;;7.55;3.50;;;;;;;18.90;61.57;100419.78;5031548;28;20033;-88
2022/05/10 05:45:07;;;;;;;8.15;3.65;;;;;;;18.72;62.20;100414.50;5031832;28;20033;-88
2022/05/10 05:47:33;;;;;;;9.68;3.75;;;;;;;18.75;62.26;100416.81;5031992;28;20022;-89
2022/05/10 05:49:58;;;;;;;7.10;3.30;;;;;;;18.67;62.31;100413.28;5031977;28;20029;-88
2022/05/10 05:52:25;;;;;;;8.13;3.53;;;;;;;18.82;62.21;100417.09;5031889;28;20063;-88
2022/05/10 05:54:51;;;;;;;9.52;3.55;;;;;;;19.08;61.26;100405.56;5031961;28;20108;-88
2022/05/10 05:57:17;;;;;;;4.25;2.85;;;;;;;18.75;62.70;100419.47;5031199;28;20025;-88
2022/05/10 05:59:43;;;;;;;9.52;3.95;;;;;;;18.96;61.61;100419.16;5034541;28;20087;-92
2022/05/10 06:02:11;;;;;;;10.80;3.90;;;;;;;18.80;62.56;100421.72;5035317;28;20021;-93
2022/05/10 06:04:37;;;;;;;9.10;3.38;;;;;;;18.73;62.59;100416.16;5034869;28;20033;-90
2022/05/10 06:07:02;;;;;;;9.05;3.83;;;;;;;18.56;63.76;100415.22;5035960;28;20087;-90
2022/05/10 06:09:28;;;;;;;8.98;3.30;;;;;;;18.84;62.95;100420.41;5035936;28;20372;-90
2022/05/10 06:11:53;;;;;;;7.90;3.20;;;;;;;18.70;63.12;100407.66;5034105;28;20075;-90
2022/05/10 06:14:18;;;;;;;6.38;2.95;;;;;;;18.76;63.26;100423.81;5034287;28;20033;-87
2022/05/10 06:16:44;;;;;;;9.30;3.97;;;;;;;18.57;63.59;100406.25;5027281;28;20061;-89
2022/05/10 06:19:11;;;;;;;6.35;3.05;;;;;;;18.95;63.49;100420.13;5022359;28;20029;-89
2022/05/10 06:21:36;;;;;;;9.57;2.95;;;;;;;18.88;63.25;100399.63;5023764;28;20539;-89
2022/05/10 06:24:02;;;;;;;9.55;3.25;;;;;;;18.85;63.99;100419.41;5027527;28;20112;-90
2022/05/10 06:26:28;;;;;;;7.00;3.28;;;;;;;18.82;64.05;100417.09;5035229;28;20025;-89
2022/05/10 06:28:53;;;;;;;8.73;3.83;;;;;;;18.99;63.81;100424.13;5035426;28;20185;-89
2022/05/10 06:31:18;;;;;;;8.82;4.00;;;;;;;18.87;64.41;100413.94;5034822;28;20042;-89
2022/05/10 06:33:44;;;;;;;11.55;3.42;;;;;;;18.65;65.73;100423.25;5035319;28;20026;-90
2022/05/10 06:36:09;;;;;;;6.97;3.45;;;;;;;18.30;66.33;100427.66;5034557;28;20049;-89
2022/05/10 06:38:36;;;;;;;10.35;4.03;;;;;;;18.76;65.57;100425.63;5033887;28;20026;-89
2022/05/10 06:41:04;;;;;;;7.63;3.63;;;;;;;18.52;66.17;100424.50;5025919;28;20054;-89
2022/05/10 06:43:35;;;;;;;9.15;4.32;;;;;;;18.53;65.85;100414.69;5014187;28;20416;-90
2022/05/10 06:46:08;;;;;;;7.47;3.60;;;;;;;18.72;65.80;100419.81;5029258;28;20036;-89
2022/05/10 06:48:34;;;;;;;7.40;3.80;;;;;;;18.82;65.65;100419.75;5032679;28;20037;-91
2022/05/10 06:51:04;;;;;;;7.47;3.85;;;;;;;18.86;65.66;100423.75;5033643;28;20480;-89
2022/05/10 06:53:30;;;;;;;8.43;3.75;;;;;;;18.76;65.77;100417.66;5033469;28;20507;-90
2022/05/10 06:55:55;;;;;;;6.95;3.85;;;;;;;18.92;65.20;100415.13;5033439;28;20040;-89
2022/05/10 06:58:20;;;;;;;7.70;3.47;;;;;;;18.96;65.39;100418.31;5033216;28;20032;-89
2022/05/10 07:00:46;;;;;;;5.55;2.60;;;;;;;19.00;65.18;100425.00;5034417;28;20051;-88
2022/05/10 07:03:15;;;;;;;4.90;3.60;;;;;;;19.10;64.86;100420.38;5034214;28;20396;-89
2022/05/10 07:05:45;;;;;;;9.00;3.75;;;;;;;19.22;64.65;100412.94;5033950;28;20055;-89
2022/05/10 07:08:11;;;;;;;5.43;3.22;;;;;;;19.31;64.66;100422.63;5031191;28;20044;-89
2022/05/10 07:10:37;;;;;;;7.45;3.10;;;;;;;19.43;64.35;100423.16;5033084;28;20030;-89
2022/05/10 07:13:03;;;;;;;6.10;2.50;;;;;;;19.48;64.20;100433.34;5030572;28;20045;-86
2022/05/10 07:15:28;;;;;;;5.55;2.97;;;;;;;19.32;64.83;100410.97;5033753;28;20029;-90
2022/05/10 07:17:54;;;;;;;4.85;1.90;;;;;;;19.31;65.14;100422.63;5034836;28;20087;-88
2022/05/10 07:20:20;;;;;;;3.67;1.85;;;;;;;19.55;64.56;100426.34;5032649;28;20033;-89
2022/05/10 07:22:46;;;;;;;3.00;2.08;;;;;;;19.40;64.20;100416.31;5030099;28;20116;-89
2022/05/10 07:25:17;;;;;;;4.95;1.80;;;;;;;19.46;64.58;100438.00;5028408;28;20467;-87
2022/05/10 07:27:44;;;;;;;6.05;1.77;;;;;;;18.68;66.21;100478.78;5028443;28;20091;-88
2022/05/10 07:30:11;;;;;;;9.68;1.67;;;;;;;17.54;66.98;100466.06;5032846;28;20037;-89
2022/05/10 07:32:36;;;;;;;11.25;2.20;;;;;;;17.87;65.22;100463.78;5032830;28;20475;-87
2022/05/10 07:35:03;;;;;;;8.27;1.52;;;;;;;17.93;65.09;100469.34;5031420;28;20064;-88
2022/05/10 07:37:30;;;;;;;10.07;1.63;;;;;;;17.61;65.62;100469.78;5032954;28;20064;-87
2022/05/10 07:39:55;;;;;;;11.10;1.88;;;;;;;17.74;65.30;100470.25;5032189;28;20025;-88
2022/05/10 07:42:21;;;;;;;9.70;1.75;;;;;;;18.15;63.70;100469.88;5032421;28;20025;-88
2022/05/10 07:44:49;;;;;;;12.73;1.75;;;;;;;18.60;62.63;100461.78;5031974;28;20068;-89
2022/05/10 07:47:14;;;;;;;8.27;2.63;;;;;;;18.44;62.47;100477.59;5033177;28;20021;-89
2022/05/10 07:49:40;;;;;;;8.68;1.48;;;;;;;17.97;63.31;100469.84;5033277;28;20056;-88
2022/05/10 07:52:06;;;;;;;12.68;1.50;;;;;;;17.39;64.68;100479.78;5032831;28;20029;-88
2022/05/10 07:54:31;;;;;;;12.45;1.98;;;;;;;17.90;62.94;100474.13;5031315;28;20116;-89
2022/05/10 07:56:56;;;;;;;13.25;1.80;;;;;;;18.03;61.98;100479.91;5033205;28;20025;-88
2022/05/10 07:59:22;;;;;;;9.95;1.92;;;;;;;18.36;61.35;100481.00;5031943;28;20029;-88
2022/05/10 08:01:47;;;;;;;12.57;2.28;;;;;;;17.76;62.10;100468.28;5048536;28;20022;-88
2022/05/10 08:04:12;;;;;;;9.60;2.13;;;;;;;17.73;62.88;100475.72;5033017;28;20036;-88
2022/05/10 08:06:38;;;;;;;7.93;1.73;;;;;;;18.36;60.70;100462.41;5032005;28;20414;-88
2022/05/10 08:09:03;;;;;;;14.95;2.90;;;;;;;18.20;60.84;100470.25;5032214;28;20026;-88
2022/05/10 08:11:29;;;;;;;12.38;2.17;;;;;;;18.23;61.27;100472.63;5031707;28;20480;-88
2022/05/10 08:13:54;;;;;;;13.80;2.28;;;;;;;18.41;60.28;100483.25;5032809;28;20487;-89
2022/05/10 08:16:20;;;;;;;8.90;1.85;;;;;;;18.43;59.93;100473.28;5032961;28;20018;-88
2022/05/10 08:18:49;;;;;;;8.90;1.70;;;;;;;18.17;59.91;100484.69;5032784;28;20396;-89
2022/05/10 08:21:16;;;;;;;9.35;1.77;;;;;;;18.62;60.06;100480.22;5032429;28;20044;-88
2022/05/10 08:23:41;;;;;;;8.98;2.00;;;;;;;18.38;59.97;100478.22;5031839;28;20021;-88
2022/05/10 08:26:08;;;;;;;19.38;3.22;;;;;;;18.67;59.64;100475.28;5032643;28;20031;-88
2022/05/10 08:28:35;;;;;;;20.13;3.03;;;;;;;18.53;59.64;100476.69;5032461;28;20326;-89
2022/05/10 08:31:03;;;;;;;11.75;2.22;;;;;;;18.92;59.54;100478.16;5032429;28;20029;-88
2022/05/10 08:33:33;;;;;;;14.02;2.88;;;;;;;18.50;60.29;100476.16;5032533;28;20032;-88
2022/05/10 08:36:00;;;;;;;12.88;2.45;;;;;;;18.93;59.50;100463.84;5032189;28;20387;-88
2022/05/10 08:38:27;;;;;;;10.27;2.47;;;;;;;18.93;59.41;100467.34;5031659;28;20026;-88
2022/05/10 08:41:01;;;;;;;10.90;2.63;;;;;;;18.74;60.03;100465.72;5031926;28;20029;-89
2022/05/10 08:43:39;;;;;;;16.52;3.67;;;;;;;19.23;57.80;100478.47;5032166;28;20502;-89
2022/05/10 08:46:09;;;;;;;19.98;2.85;;;;;;;19.25;57.69;100468.50;5031443;28;20043;-89
2022/05/10 08:48:34;;;;;;;20.88;2.95;;;;;;;18.82;59.25;100471.09;5019456;28;20021;-89
2022/05/10 08:51:01;;;;;;;11.82;2.38;;;;;;;19.64;57.67;100476.00;5031567;28;20027;-91
2022/05/10 08:53:27;;;;;;;9.77;2.35;;;;;;;19.92;58.19;100473.09;5031312;28;20029;-90
2022/05/10 08:56:21;;;;;;;10.82;2.78;;;;;;;20.02;56.74;100473.78;5032842;28;20025;-90
2022/05/10 08:58:47;;;;;;;15.65;3.10;;;;;;;19.93;57.73;100488.09;5031511;28;20021;-90
2022/05/10 09:01:19;;;;;;;18.83;2.50;;;;;;;20.28;56.64;100476.31;5031428;28;20531;-91
2022/05/10 09:03:56;;;;;;;13.15;2.70;;;;;;;20.30;56.71;100481.47;5032328;28;20022;-91
2022/05/10 09:06:46;;;;;;;18.50;3.58;;;;;;;19.76;57.03;100496.03;5032295;28;20025;-89
2022/05/10 09:09:43;;;;;;;16.60;2.92;;;;;;;20.42;55.44;100501.50;5028466;28;20022;-90
2022/05/10 09:12:13;;;;;;;20.67;3.10;;;;;;;20.78;55.13;100486.00;5030195;28;20435;-90
2022/05/10 09:15:06;;;;;;;20.42;2.47;;;;;;;20.86;54.16;100489.66;5031966;28;20035;-90
2022/05/10 09:17:36;;;;;;;18.10;2.92;;;;;;;21.29;53.15;100483.03;5027895;28;20027;-90
2022/05/10 09:20:05;;;;;;;15.43;2.65;;;;;;;21.70;52.29;100485.56;5030961;28;20032;-90
2022/05/10 09:22:47;;;;;;;14.68;2.45;;;;;;;21.79;51.79;100476.50;5031363;28;20017;-90
2022/05/10 09:25:32;;;;;;;13.45;2.70;;;;;;;22.15;50.55;100481.25;5028243;28;20022;-90
2022/05/10 09:27:59;;;;;;;12.45;2.33;;;;;;;23.24;49.14;100485.50;5030455;28;20120;-90
2022/05/10 09:30:33;;;;;;;11.63;2.58;;;;;;;23.03;47.71;100496.97;5025132;28;20108;-90
2022/05/10 09:36:10;;;;;;;16.55;4.00;;;;;;;22.51;47.76;100499.44;5031967;28;20444;-91
2022/05/10 09:38:44;;;;;;;15.05;3.00;;;;;;;22.40;48.16;100491.00;5030245;28;20052;-91
2022/05/10 09:41:27;;;;;;;13.20;2.30;;;;;;;22.63;46.63;100493.63;5032271;28;20376;-92
2022/05/10 09:43:54;;;;;;;14.70;2.33;;;;;;;22.54;46.85;100499.06;5032406;28;20029;-91
2022/05/10 09:46:23;;;;;;;10.18;2.47;;;;;;;22.01;48.44;100506.09;5031794;28;20025;-91
2022/05/10 09:48:49;;;;;;;18.52;3.08;;;;;;;22.14;47.60;100506.34;5032505;28;20025;-92
2022/05/10 09:51:39;;;;;;;12.88;2.33;;;;;;;22.27;48.19;100503.09;5030892;28;20120;-91
2022/05/10 09:54:19;;;;;;;10.95;3.10;;;;;;;21.76;48.40;100500.06;5030067;28;20407;-92
2022/05/10 09:56:50;;;;;;;14.15;2.90;;;;;;;22.09;48.43;100506.03;5032067;28;20029;-92
2022/05/10 09:59:18;;;;;;;14.23;2.85;;;;;;;21.76;47.12;100516.94;5032466;28;20021;-93
2022/05/10 10:01:47;;;;;;;14.93;2.33;;;;;;;22.12;46.50;100497.69;5031349;28;20030;-92
2022/05/10 10:04:18;;;;;;;16.95;3.53;;;;;;;21.87;47.28;100507.69;5031092;28;20025;-92
2022/05/10 10:06:44;;;;;;;;;;;;;;;22.34;46.41;100509.41;5031767;28;20135;-92
2022/05/10 10:09:09;;;;;;;15.35;2.22;;;;;;;22.54;45.84;100506.25;5030701;28;19967;-92
2022/05/10 10:11:38;;;;;;;22.45;2.45;;;;;;;23.07;43.53;100500.94;5032035;28;20037;-93
2022/05/10 10:14:09;;;;;;;13.45;2.53;;;;;;;22.64;43.96;100514.88;5032026;28;20029;-91
2022/05/10 10:16:37;;;;;;;15.05;2.47;;;;;;;22.95;42.43;100508.56;5032110;28;20037;-93
2022/05/10 10:19:11;;;;;;;10.30;2.60;;;;;;;23.50;43.27;100506.47;5032095;28;20040;-92
2022/05/10 10:21:44;;;;;;;16.27;2.67;;;;;;;25.10;41.13;100505.41;5031171;28;20105;-93
2022/05/10 10:24:18;;;;;;;16.80;2.45;;;;;;;25.87;37.92;100495.41;5020547;28;20022;-93
2022/05/10 10:26:53;;;;;;;12.98;2.03;;;;;;;26.00;38.95;100510.78;5020581;28;20026;-89
2022/05/10 10:29:28;;;;;;;11.43;2.45;;;;;;;26.21;37.30;100504.44;5022712;28;20021;-89
2022/05/10 10:32:06;;;;;;;13.10;1.83;;;;;;;27.72;36.56;100492.00;5040372;28;20078;-90
2022/05/10 10:34:57;;;;;;;12.20;2.22;;;;;;;28.17;36.28;100489.28;5022164;28;20152;-90
2022/05/10 10:37:46;;;;;;;16.15;3.83;;;;;;;28.93;34.91;100495.50;5030915;28;20368;-90
2022/05/10 10:40:54;;;;;;;11.43;2.00;;;;;;;27.95;35.85;100495.00;5025905;28;20083;-90
2022/05/10 10:43:30;;;;;;;11.10;2.00;;;;;;;29.00;34.97;100490.88;5005138;28;20042;-91
2022/05/10 10:46:37;;;;;;;11.35;2.38;;;;;;;29.92;32.87;100498.97;5032451;28;20390;-91
2022/05/10 10:49:11;;;;;;;12.02;2.28;;;;;;;29.76;32.54;100486.06;5035064;28;20408;-91
2022/05/10 10:51:37;;;;;;;9.20;2.10;;;;;;;28.64;33.59;100478.97;5034419;28;20091;-91
2022/05/10 10:54:04;;;;;;;9.07;2.03;;;;;;;29.59;32.76;100497.50;5033862;28;20071;-91
2022/05/10 10:56:46;;;;;;;10.80;2.15;;;;;;;28.12;33.84;100481.84;5034627;28;20044;-91
2022/05/10 10:59:42;;;;;;;9.32;2.33;;;;;;;27.35;34.90;100492.59;5033594;28;20029;-90
2022/05/10 11:02:40;;;;;;;9.13;2.08;;;;;;;26.17;37.18;100492.41;5033760;28;20026;-90
2022/05/10 11:05:16;;;;;;;10.18;2.90;;;;;;;25.63;38.04;100494.94;5034959;28;20021;-91
2022/05/10 11:08:08;;;;;;;7.57;2.03;;;;;;;24.98;39.21;100504.25;5033992;28;20048;-91
2022/05/10 11:10:40;;;;;;;8.45;1.95;;;;;;;24.82;37.76;100500.88;5034166;28;20040;-91
2022/05/10 11:13:30;;;;;;;7.50;1.70;;;;;;;24.57;38.25;100499.63;5032135;28;20029;-90
2022/05/10 11:16:01;;;;;;;11.10;1.95;;;;;;;24.84;37.75;100501.50;5034433;28;20040;-90
2022/05/10 11:18:42;;;;;;;7.95;1.80;;;;;;;23.56;39.90;100509.25;5032393;28;20035;-90
2022/05/10 11:21:37;;;;;;;6.50;1.90;;;;;;;23.50;40.26;100510.00;5036954;28;20041;-89
2022/05/10 11:24:14;;;;;;;9.15;2.15;;;;;;;23.26;40.08;100513.81;5005639;28;20400;-89
2022/05/10 11:26:45;;;;;;;14.18;1.88;;;;;;;22.75;41.73;100519.78;5014152;28;20029;-90
2022/05/10 11:29:34;;;;;;;19.48;2.92;;;;;;;23.53;40.87;100514.13;5016536;28;20029;-90
2022/05/10 11:32:18;;;;;;;9.73;1.77;;;;;;;22.77;42.00;100516.94;5033743;28;20049;-90
2022/05/10 11:35:09;;;;;;;9.15;1.92;;;;;;;24.84;37.94;100511.38;5034210;28;20076;-90
2022/05/10 11:37:50;;;;;;;12.67;4.30;;;;;;;25.41;37.94;100502.25;5033419;28;20083;-90
2022/05/10 11:40:31;;;;;;;13.50;3.17;;;;;;;25.96;38.95;100515.75;5031208;28;21197;-90
2022/05/10 11:43:18;;;;;;;15.98;2.30;;;;;;;25.35;39.35;100507.63;5033397;28;20040;-90